Time;durP1;ratioP1;P1;durP2;ratioP2;P2;SDS_P1;SDS_P2;PMS_P1;PMS_P2;Temp;Humidity;BMP_temperature;BMP_pressure;BME280_temperature;BME280_humidity;BME280_pressure;Samples;Min_cycle;Max_cycle;Signal;HPM_P1;HPM_P2
2021/05/08 00:00:06;;;;;;;3.12;1.80;;;;;;;23.16;55.38;99742.42;1777246;79;21575;-62
2021/05/08 00:02:34;;;;;;;3.70;1.90;;;;;;;23.15;55.31;99751.33;1760715;79;21485;-62
2021/05/08 00:05:00;;;;;;;3.67;1.75;;;;;;;23.15;55.26;99753.30;1775469;79;21200;-61
2021/05/08 00:07:27;;;;;;;3.20;1.40;;;;;;;23.15;55.21;99753.30;1771831;79;21535;-62
2021/05/08 00:09:53;;;;;;;2.65;1.40;;;;;;;23.15;55.18;99742.20;1767042;79;21663;-61
2021/05/08 00:12:19;;;;;;;7.08;1.32;;;;;;;23.13;55.13;99745.32;1767479;79;21149;-62
2021/05/08 00:14:46;;;;;;;3.17;1.67;;;;;;;23.12;55.13;99745.70;1767564;79;22184;-61
2021/05/08 00:17:12;;;;;;;4.60;1.87;;;;;;;23.12;55.11;99744.31;1762978;79;21590;-61
2021/05/08 00:19:38;;;;;;;2.42;1.67;;;;;;;23.10;55.09;99742.47;1773995;79;21140;-61
2021/05/08 00:22:05;;;;;;;2.60;1.52;;;;;;;23.08;55.07;99758.69;1761769;79;21157;-61
2021/05/08 00:24:31;;;;;;;3.20;1.57;;;;;;;23.06;55.08;99763.20;1769547;79;21185;-61
2021/05/08 00:26:58;;;;;;;2.95;1.60;;;;;;;23.06;55.05;99765.97;1758012;80;22157;-62
2021/05/08 00:29:24;;;;;;;2.98;1.40;;;;;;;23.04;55.07;99768.89;1752325;79;21169;-61
2021/05/08 00:31:50;;;;;;;3.30;1.30;;;;;;;23.03;55.06;99773.63;1753611;79;21208;-62
2021/05/08 00:34:17;;;;;;;2.92;1.35;;;;;;;23.01;55.07;99765.42;1756238;79;21541;-62
2021/05/08 00:36:43;;;;;;;2.67;1.37;;;;;;;23.00;55.07;99767.39;1757859;79;21181;-62
2021/05/08 00:39:09;;;;;;;2.92;1.57;;;;;;;22.99;55.09;99765.80;1751798;79;21577;-62
2021/05/08 00:41:36;;;;;;;3.80;1.47;;;;;;;22.97;55.10;99758.98;1755299;79;21988;-61
2021/05/08 00:44:04;;;;;;;2.02;1.25;;;;;;;22.95;55.11;99759.36;1755262;79;21167;-62
2021/05/08 00:46:31;;;;;;;2.33;1.40;;;;;;;22.96;55.11;99757.37;1754314;79;21251;-61
2021/05/08 00:48:58;;;;;;;2.55;1.40;;;;;;;22.92;55.13;99753.12;1755318;79;21181;-62
2021/05/08 00:51:25;;;;;;;1.85;1.32;;;;;;;22.92;55.12;99768.95;1757583;79;21907;-62
2021/05/08 00:53:52;;;;;;;3.22;1.32;;;;;;;22.91;55.15;99779.27;1753353;79;21240;-62
2021/05/08 00:56:18;;;;;;;2.20;1.20;;;;;;;22.90;55.14;99780.43;1751798;79;21121;-61
2021/05/08 00:58:45;;;;;;;2.58;1.25;;;;;;;22.89;55.19;99785.74;1753508;79;22053;-62
2021/05/08 01:01:11;;;;;;;2.02;1.45;;;;;;;22.89;55.18;99779.39;1728075;79;21256;-62
2021/05/08 01:03:38;;;;;;;2.05;1.52;;;;;;;22.87;55.21;99775.61;1756119;81;21261;-62
2021/05/08 01:06:04;;;;;;;2.10;1.25;;;;;;;22.86;55.22;99779.53;1705217;82;21098;-62
2021/05/08 01:08:31;;;;;;;2.55;1.32;;;;;;;22.86;55.23;99788.43;1736070;81;21619;-61
2021/05/08 01:10:57;;;;;;;2.02;1.37;;;;;;;22.85;55.25;99803.45;1734356;81;21233;-62
2021/05/08 01:13:24;;;;;;;3.27;1.70;;;;;;;22.83;55.26;99801.03;1729111;81;21215;-61
2021/05/08 01:15:50;;;;;;;2.45;1.35;;;;;;;22.83;55.28;99801.63;1736795;79;21196;-62
2021/05/08 01:18:17;;;;;;;3.12;1.27;;;;;;;22.82;55.29;99811.11;1773141;79;21909;-62
2021/05/08 01:20:43;;;;;;;2.12;1.30;;;;;;;22.82;55.32;99809.72;1739319;79;21195;-62
2021/05/08 01:23:09;;;;;;;2.22;1.17;;;;;;;22.81;55.33;99805.33;1771470;79;21160;-62
2021/05/08 01:25:36;;;;;;;3.58;1.50;;;;;;;22.80;55.33;99807.88;1782564;79;21206;-62
2021/05/08 01:28:03;;;;;;;2.22;1.50;;;;;;;22.80;55.36;99803.13;1777663;79;22071;-63
2021/05/08 01:30:33;;;;;;;1.87;1.27;;;;;;;22.78;55.36;99806.86;1784181;79;21200;-62
2021/05/08 01:33:00;;;;;;;1.82;1.27;;;;;;;22.78;55.36;99811.02;1763234;79;21157;-62
2021/05/08 01:35:28;;;;;;;2.20;1.30;;;;;;;22.78;55.37;99819.92;1769148;79;21278;-62
2021/05/08 01:37:55;;;;;;;1.75;1.20;;;;;;;22.76;55.39;99829.97;1769574;79;21141;-62
2021/05/08 01:40:30;;;;;;;2.50;1.70;;;;;;;22.76;55.38;99828.00;1765638;79;22232;-61
2021/05/08 01:42:57;;;;;;;1.77;1.17;;;;;;;22.76;55.42;99825.81;1767121;79;21471;-62
2021/05/08 01:45:23;;;;;;;2.90;1.30;;;;;;;22.75;55.39;99833.89;1770851;79;21133;-62
2021/05/08 01:47:51;;;;;;;3.60;1.50;;;;;;;22.73;55.41;99827.91;1770398;79;21508;-62
2021/05/08 01:50:23;;;;;;;3.75;1.45;;;;;;;22.74;55.42;99841.41;1765729;79;21126;-62
2021/05/08 01:52:50;;;;;;;3.37;1.60;;;;;;;22.73;55.39;99843.16;1781175;79;22051;-62
2021/05/08 01:55:22;;;;;;;2.47;1.45;;;;;;;22.72;55.40;99839.58;1776157;79;21154;-62
2021/05/08 01:57:53;;;;;;;2.08;1.22;;;;;;;22.72;55.39;99847.09;1759649;81;21117;-61
2021/05/08 02:00:36;;;;;;;2.65;1.50;;;;;;;22.71;55.39;99842.70;1758489;79;21166;-61
2021/05/08 02:03:02;;;;;;;2.87;1.37;;;;;;;22.69;55.37;99852.78;1756334;81;21600;-61
2021/05/08 02:05:31;;;;;;;2.67;1.55;;;;;;;22.67;55.33;99855.05;1755153;79;23541;-61
2021/05/08 02:08:03;;;;;;;2.92;1.45;;;;;;;22.67;55.33;99859.79;1761712;80;21148;-62
2021/05/08 02:10:30;;;;;;;2.00;1.20;;;;;;;22.67;55.33;99866.72;1757628;81;21449;-61
2021/05/08 02:12:58;;;;;;;2.42;1.05;;;;;;;22.65;55.32;99867.67;1764178;79;21155;-62
2021/05/08 02:15:24;;;;;;;2.17;1.57;;;;;;;22.65;55.31;99882.92;1733305;81;21124;-62
2021/05/08 02:17:51;;;;;;;3.17;1.60;;;;;;;22.65;55.32;99885.12;1763351;79;22133;-62
2021/05/08 02:20:23;;;;;;;2.58;1.35;;;;;;;22.63;55.31;99884.65;1761422;79;21187;-62
2021/05/08 02:22:49;;;;;;;3.17;1.20;;;;;;;22.63;55.27;99895.73;1759579;79;21097;-61
2021/05/08 02:25:17;;;;;;;1.30;1.00;;;;;;;22.63;55.27;99892.97;1764327;79;21121;-62
2021/05/08 02:27:43;;;;;;;2.30;1.27;;;;;;;22.63;55.26;99903.25;1758606;80;21580;-61
2021/05/08 02:30:13;;;;;;;3.05;1.30;;;;;;;22.62;55.27;99907.17;1770571;79;21559;-63
2021/05/08 02:32:39;;;;;;;2.35;1.30;;;;;;;22.61;55.27;99917.48;1767063;79;21478;-62
2021/05/08 02:35:08;;;;;;;1.80;1.22;;;;;;;22.61;55.25;99917.48;1766234;79;21111;-62
2021/05/08 02:37:35;;;;;;;2.70;1.20;;;;;;;22.59;55.24;99920.36;1763085;79;21256;-62
2021/05/08 02:40:07;;;;;;;2.67;1.50;;;;;;;22.59;55.24;99927.29;1758968;79;21208;-61
2021/05/08 02:42:33;;;;;;;1.20;0.88;;;;;;;22.58;55.22;99923.70;1764436;79;22596;-61
2021/05/08 02:44:59;;;;;;;2.10;1.20;;;;;;;22.58;55.23;99927.86;1768985;79;21638;-62
2021/05/08 02:47:26;;;;;;;2.67;1.37;;;;;;;22.56;55.22;99931.58;1750704;79;21192;-62
2021/05/08 02:49:54;;;;;;;2.12;1.10;;;;;;;22.57;55.23;99936.55;1757207;79;21685;-62
2021/05/08 02:52:21;;;;;;;1.80;1.00;;;;;;;22.56;55.20;99946.83;1762655;79;21176;-62
2021/05/08 02:54:47;;;;;;;2.00;1.17;;;;;;;22.56;55.20;99948.80;1766187;79;21532;-62
2021/05/08 02:57:14;;;;;;;1.45;1.00;;;;;;;22.55;55.18;99956.30;1762013;79;21050;-62
2021/05/08 02:59:41;;;;;;;1.87;1.40;;;;;;;22.54;55.19;99960.22;1777958;79;21151;-62
2021/05/08 03:02:07;;;;;;;2.30;1.30;;;;;;;22.53;55.18;99969.69;1777391;79;21189;-61
2021/05/08 03:04:34;;;;;;;1.80;1.20;;;;;;;22.54;55.17;99974.08;1768133;79;21206;-61
2021/05/08 03:07:01;;;;;;;2.10;1.30;;;;;;;22.52;55.14;99986.11;1774064;79;21205;-62
2021/05/08 03:09:29;;;;;;;1.72;1.10;;;;;;;22.52;55.15;99991.66;1771979;79;21175;-62
2021/05/08 03:11:56;;;;;;;2.58;1.10;;;;;;;22.52;55.13;99987.50;1774213;79;21031;-62
2021/05/08 03:14:23;;;;;;;1.85;1.27;;;;;;;22.52;55.12;99993.05;1769579;79;22246;-61
2021/05/08 03:16:49;;;;;;;1.30;0.98;;;;;;;22.51;55.10;99996.97;1768932;79;21117;-61
2021/05/08 03:19:15;;;;;;;3.22;1.10;;;;;;;22.51;55.10;100003.09;1771224;79;21272;-62
2021/05/08 03:21:42;;;;;;;1.77;1.00;;;;;;;22.50;55.07;100006.44;1772224;79;21143;-62
2021/05/08 03:24:10;;;;;;;2.52;1.20;;;;;;;22.50;55.09;100012.55;1767640;79;21595;-62
2021/05/08 03:26:36;;;;;;;2.87;1.30;;;;;;;22.49;55.08;100013.13;1761747;79;21129;-62
2021/05/08 03:29:03;;;;;;;2.55;1.40;;;;;;;22.50;55.07;100022.25;1776292;79;21110;-62
2021/05/08 03:31:30;;;;;;;3.47;1.10;;;;;;;22.49;55.07;100033.92;1769537;79;21226;-62
2021/05/08 03:33:57;;;;;;;2.45;1.20;;;;;;;22.49;55.07;100040.84;1771554;79;21121;-62
2021/05/08 03:36:23;;;;;;;2.62;1.17;;;;;;;22.48;55.08;100044.80;1760771;79;21451;-61
2021/05/08 03:38:50;;;;;;;1.80;1.15;;;;;;;22.48;55.05;100047.57;1768647;79;21153;-62
2021/05/08 03:41:16;;;;;;;1.92;1.20;;;;;;;22.48;55.04;100060.05;1768812;79;21143;-61
2021/05/08 03:43:43;;;;;;;2.20;1.20;;;;;;;22.47;55.03;100062.58;1769092;79;21250;-62
2021/05/08 03:46:09;;;;;;;2.08;1.35;;;;;;;22.47;55.03;100079.21;1768253;79;21184;-62
2021/05/08 03:48:36;;;;;;;2.25;1.20;;;;;;;22.47;55.02;100091.69;1765498;79;21553;-62
2021/05/08 03:51:03;;;;;;;2.65;1.30;;;;;;;22.47;55.02;100113.05;1769737;79;21211;-61
2021/05/08 03:53:29;;;;;;;2.98;1.32;;;;;;;22.46;54.99;100110.84;1763979;79;21113;-61
2021/05/08 03:55:55;;;;;;;2.33;1.30;;;;;;;22.47;54.99;100124.13;1759734;79;21224;-61
2021/05/08 03:58:27;;;;;;;2.52;1.35;;;;;;;22.47;54.97;100134.65;1763407;79;21915;-62
2021/05/08 04:00:53;;;;;;;2.30;1.35;;;;;;;22.46;54.97;100145.50;1777811;79;21091;-62
2021/05/08 04:03:20;;;;;;;2.37;1.40;;;;;;;22.47;54.98;100150.47;1769878;79;21528;-62
2021/05/08 04:05:46;;;;;;;2.95;2.05;;;;;;;22.46;54.97;100151.61;1772027;79;21199;-62
2021/05/08 04:08:13;;;;;;;2.62;1.35;;;;;;;22.45;54.95;100157.73;1778530;79;21198;-62
2021/05/08 04:10:39;;;;;;;2.40;1.45;;;;;;;22.47;54.95;100165.71;1774589;79;21189;-62
2021/05/08 04:13:05;;;;;;;1.55;1.22;;;;;;;22.46;54.92;100166.29;1770688;79;21487;-61
2021/05/08 04:15:32;;;;;;;1.85;1.30;;;;;;;22.46;54.92;100177.38;1771817;79;21562;-62
2021/05/08 04:17:58;;;;;;;2.90;1.40;;;;;;;22.46;54.90;100182.11;1767054;79;21480;-63
2021/05/08 04:20:25;;;;;;;1.90;1.22;;;;;;;22.45;54.91;100182.68;1781666;79;21593;-62
2021/05/08 04:22:52;;;;;;;2.15;1.35;;;;;;;22.46;54.88;100187.08;1770651;79;21203;-62
2021/05/08 04:25:19;;;;;;;2.77;1.35;;;;;;;22.45;54.91;100184.06;1764297;79;21235;-61
2021/05/08 04:27:45;;;;;;;2.80;1.47;;;;;;;22.45;54.91;100196.54;1760969;79;21653;-62
2021/05/08 04:30:13;;;;;;;3.40;1.40;;;;;;;22.46;54.93;100203.71;1763799;79;21180;-62
2021/05/08 04:32:40;;;;;;;3.55;1.20;;;;;;;22.46;54.95;100216.19;1772448;79;21074;-60
2021/05/08 04:35:07;;;;;;;1.90;1.35;;;;;;;22.47;54.98;100228.09;1768035;79;21216;-62
2021/05/08 04:37:34;;;;;;;5.10;1.85;;;;;;;22.46;55.06;100236.97;1757637;79;21569;-63
2021/05/08 04:40:00;;;;;;;2.20;1.45;;;;;;;22.48;55.08;100245.77;1759106;79;21212;-64
2021/05/08 04:42:27;;;;;;;8.28;4.00;;;;;;;22.50;55.12;100264.23;1764363;79;21254;-63
2021/05/08 04:44:53;;;;;;;9.83;2.65;;;;;;;22.52;55.16;100265.30;1768154;79;22140;-63
2021/05/08 04:47:20;;;;;;;8.65;2.22;;;;;;;22.54;55.22;100263.78;1756717;79;22358;-62
2021/05/08 04:49:48;;;;;;;8.15;2.02;;;;;;;22.56;55.24;100270.38;1754095;79;21130;-63
2021/05/08 04:52:14;;;;;;;6.08;1.72;;;;;;;22.57;55.26;100277.55;1755491;79;21179;-63
2021/05/08 04:54:41;;;;;;;2.25;1.30;;;;;;;22.59;55.30;100296.02;1756423;79;21196;-63
2021/05/08 04:57:07;;;;;;;9.73;2.92;;;;;;;22.61;55.34;100309.80;1756017;79;21212;-61
2021/05/08 04:59:33;;;;;;;7.15;2.50;;;;;;;22.62;55.37;100306.42;1755277;79;21145;-63
2021/05/08 05:02:01;;;;;;;3.90;1.70;;;;;;;22.63;55.39;100310.25;1757219;79;21817;-62
2021/05/08 05:04:27;;;;;;;3.15;1.47;;;;;;;22.65;55.41;100314.08;1767206;79;21113;-62
2021/05/08 05:06:54;;;;;;;4.20;1.75;;;;;;;22.64;55.45;100309.10;1772452;79;21138;-61
2021/05/08 05:09:23;;;;;;;1.87;1.10;;;;;;;22.66;55.45;100313.71;1765943;79;21572;-61
2021/05/08 05:11:49;;;;;;;1.70;0.98;;;;;;;22.66;55.45;100313.71;1770391;79;21567;-61
2021/05/08 05:14:16;;;;;;;1.40;0.80;;;;;;;22.66;55.46;100310.94;1760942;79;21184;-64
2021/05/08 05:16:43;;;;;;;2.15;1.00;;;;;;;22.67;55.48;100319.50;1770694;79;21209;-63
2021/05/08 05:19:09;;;;;;;3.60;1.32;;;;;;;22.67;55.51;100316.73;1774262;79;21185;-64
2021/05/08 05:21:35;;;;;;;3.77;1.45;;;;;;;22.70;55.49;100338.25;1775245;79;21272;-66
2021/05/08 05:24:03;;;;;;;3.40;1.30;;;;;;;22.71;55.50;100332.13;1765217;79;21143;-64
2021/05/08 05:26:29;;;;;;;2.08;1.12;;;;;;;22.71;55.50;100344.03;1758078;79;21192;-64
2021/05/08 05:28:56;;;;;;;2.95;1.10;;;;;;;22.72;55.52;100341.50;1763078;79;21542;-65
2021/05/08 05:31:22;;;;;;;1.90;0.90;;;;;;;22.72;55.52;100347.05;1760116;79;21144;-64
2021/05/08 05:33:49;;;;;;;2.05;1.00;;;;;;;22.74;55.51;100355.03;1758776;79;21206;-64
2021/05/08 05:36:15;;;;;;;2.25;1.07;;;;;;;22.75;55.50;100367.16;1763507;79;21225;-65
2021/05/08 05:38:42;;;;;;;2.22;1.17;;;;;;;22.75;55.51;100367.16;1762303;79;21121;-63
2021/05/08 05:41:09;;;;;;;3.33;1.15;;;;;;;22.76;55.51;100370.73;1760146;79;21189;-64
2021/05/08 05:43:36;;;;;;;2.92;1.07;;;;;;;22.76;55.50;100385.42;1760210;79;21043;-64
2021/05/08 05:46:02;;;;;;;1.20;0.75;;;;;;;22.79;55.50;100387.29;1761601;81;21337;-65
2021/05/08 05:48:29;;;;;;;1.40;0.72;;;;;;;22.80;55.49;100388.89;1760625;79;21025;-63
2021/05/08 05:50:55;;;;;;;1.98;1.10;;;;;;;22.80;55.49;100404.95;1759366;79;21118;-64
2021/05/08 05:53:21;;;;;;;4.35;1.07;;;;;;;22.81;55.47;100398.84;1763183;79;21214;-64
2021/05/08 05:55:48;;;;;;;2.40;1.25;;;;;;;22.81;55.43;100406.59;1762565;79;21544;-64
2021/05/08 05:58:14;;;;;;;1.52;0.93;;;;;;;22.81;55.46;100411.31;1760904;79;21553;-62
2021/05/08 06:00:41;;;;;;;1.67;1.05;;;;;;;22.82;55.45;100409.60;1764234;79;21235;-63
2021/05/08 06:03:07;;;;;;;1.30;0.90;;;;;;;22.84;55.41;100416.17;1769106;79;21527;-62
2021/05/08 06:05:33;;;;;;;1.90;1.00;;;;;;;22.85;55.41;100426.13;1762813;79;21208;-62
2021/05/08 06:08:00;;;;;;;2.30;1.17;;;;;;;22.85;55.40;100431.09;1767443;80;21157;-62
2021/05/08 06:10:26;;;;;;;1.82;0.80;;;;;;;22.86;55.38;100420.81;1764860;79;21351;-62
2021/05/08 06:12:53;;;;;;;2.17;0.80;;;;;;;22.86;55.35;100424.41;1755802;80;21182;-62
2021/05/08 06:15:19;;;;;;;1.37;1.00;;;;;;;22.85;55.32;100427.51;1762364;79;21098;-62
2021/05/08 06:17:45;;;;;;;2.27;0.62;;;;;;;22.85;55.33;100434.44;1762445;79;21577;-62
2021/05/08 06:20:13;;;;;;;0.78;0.70;;;;;;;22.83;55.34;100443.70;1759711;81;21584;-62
2021/05/08 06:22:39;;;;;;;1.72;0.68;;;;;;;22.83;55.33;100451.41;1756768;79;21642;-62
2021/05/08 06:25:06;;;;;;;2.20;0.82;;;;;;;22.82;55.31;100453.98;1762437;81;21535;-62
2021/05/08 06:27:33;;;;;;;1.27;0.75;;;;;;;22.82;55.29;100467.84;1769605;79;21170;-62
2021/05/08 06:29:59;;;;;;;1.45;0.88;;;;;;;22.81;55.27;100475.92;1773646;79;21129;-62
2021/05/08 06:32:26;;;;;;;1.65;1.05;;;;;;;22.82;55.25;100476.74;1769742;79;21213;-62
2021/05/08 06:34:53;;;;;;;1.67;0.80;;;;;;;22.81;55.22;100489.80;1775371;79;21245;-62
2021/05/08 06:37:20;;;;;;;3.45;1.17;;;;;;;22.82;55.22;100480.91;1769179;79;21569;-62
2021/05/08 06:39:46;;;;;;;3.40;1.40;;;;;;;22.83;55.20;100492.23;1760189;79;21228;-62
2021/05/08 06:42:13;;;;;;;2.58;1.10;;;;;;;22.81;55.19;100481.47;1771274;79;21497;-62
2021/05/08 06:44:39;;;;;;;4.85;1.45;;;;;;;22.83;55.18;100490.85;1785281;79;21194;-62
2021/05/08 06:47:05;;;;;;;2.35;1.10;;;;;;;22.83;55.18;100493.63;1764018;79;21201;-61
2021/05/08 06:49:32;;;;;;;3.60;1.27;;;;;;;22.84;55.18;100492.45;1767150;79;21181;-63
2021/05/08 06:51:58;;;;;;;3.47;1.27;;;;;;;22.85;55.20;100498.24;1770691;79;21223;-62
2021/05/08 06:54:25;;;;;;;3.37;1.22;;;;;;;22.85;55.19;100495.47;1759264;79;21620;-62
2021/05/08 06:56:51;;;;;;;2.52;1.25;;;;;;;22.86;55.18;100495.71;1755018;79;21467;-61
2021/05/08 06:59:17;;;;;;;2.42;1.25;;;;;;;22.86;55.24;100495.71;1757938;79;21549;-63
2021/05/08 07:01:44;;;;;;;3.15;1.10;;;;;;;22.88;55.27;100498.94;1760661;81;21557;-64
2021/05/08 07:04:10;;;;;;;3.70;1.27;;;;;;;22.90;55.28;100511.91;1758914;79;21298;-62
2021/05/08 07:06:37;;;;;;;3.77;1.77;;;;;;;22.91;55.26;100521.86;1716660;82;21173;-61
2021/05/08 07:09:04;;;;;;;2.12;1.20;;;;;;;22.91;55.32;100518.52;1714384;82;21151;-61
2021/05/08 07:11:31;;;;;;;2.22;1.50;;;;;;;22.93;55.33;100523.13;1713949;82;21198;-61
2021/05/08 07:13:57;;;;;;;7.05;2.80;;;;;;;22.95;55.38;100536.67;1715232;82;21170;-62
2021/05/08 07:16:24;;;;;;;2.00;1.30;;;;;;;22.99;55.49;100532.06;1716802;82;21569;-61
2021/05/08 07:18:50;;;;;;;2.37;1.30;;;;;;;23.02;55.60;100533.58;1708984;81;21129;-61
2021/05/08 07:21:16;;;;;;;3.47;1.57;;;;;;;23.07;55.72;100528.40;1713169;82;21131;-62
2021/05/08 07:23:43;;;;;;;4.30;1.70;;;;;;;23.10;55.89;100536.84;1711611;82;22157;-61
2021/05/08 07:26:09;;;;;;;2.95;1.50;;;;;;;23.12;56.00;100542.88;1713969;82;21167;-62
2021/05/08 07:28:36;;;;;;;2.80;1.47;;;;;;;23.16;56.05;100537.45;1764419;81;21232;-62
2021/05/08 07:31:03;;;;;;;4.85;2.33;;;;;;;23.20;56.09;100542.55;1762707;79;21182;-61
2021/05/08 07:33:30;;;;;;;5.15;2.33;;;;;;;23.21;56.18;100547.75;1768232;80;21128;-65
2021/05/08 07:35:56;;;;;;;5.08;1.72;;;;;;;23.24;56.28;100553.21;1758979;79;23516;-61
2021/05/08 07:38:23;;;;;;;3.25;1.87;;;;;;;23.26;56.33;100564.77;1765195;81;21615;-61
2021/05/08 07:40:51;;;;;;;4.78;1.82;;;;;;;23.28;56.37;100562.48;1758440;79;21183;-61
2021/05/08 07:43:18;;;;;;;3.45;2.20;;;;;;;23.28;56.42;100570.80;1766922;81;21564;-63
2021/05/08 07:45:45;;;;;;;4.42;1.85;;;;;;;23.30;56.44;100571.86;1763996;79;21190;-62
2021/05/08 07:48:11;;;;;;;4.70;2.02;;;;;;;23.30;56.48;100577.41;1772007;79;21263;-62
2021/05/08 07:50:38;;;;;;;2.95;1.52;;;;;;;23.28;56.54;100587.46;1775255;79;21194;-61
2021/05/08 07:53:04;;;;;;;5.05;2.40;;;;;;;23.29;56.61;100582.15;1779950;79;21177;-61
2021/05/08 07:55:31;;;;;;;2.92;1.70;;;;;;;23.27;56.66;100578.89;1754232;79;21260;-63
2021/05/08 07:57:58;;;;;;;2.22;1.50;;;;;;;23.29;56.70;100577.98;1773358;79;21585;-62
2021/05/08 08:00:24;;;;;;;3.12;1.52;;;;;;;23.29;56.79;100584.11;1764357;79;23602;-62
2021/05/08 08:02:51;;;;;;;3.08;1.47;;;;;;;23.32;56.83;100587.58;1759416;80;21283;-62
2021/05/08 08:05:37;;;;;;;4.30;1.95;;;;;;;23.35;56.91;100591.88;1740189;80;21184;-63
2021/05/08 08:08:04;;;;;;;5.00;1.77;;;;;;;23.38;57.05;100592.56;1715103;82;21194;-63
2021/05/08 08:10:31;;;;;;;2.85;1.45;;;;;;;23.40;57.17;100593.63;1745433;81;21149;-63
2021/05/08 08:12:57;;;;;;;3.27;1.72;;;;;;;23.42;57.18;100596.89;1743119;81;21250;-62
2021/05/08 08:15:24;;;;;;;5.15;1.75;;;;;;;23.42;57.16;100601.05;1746751;80;21247;-61
2021/05/08 08:17:50;;;;;;;4.65;1.67;;;;;;;23.42;57.11;100605.22;1750803;80;21759;-62
2021/05/08 08:20:17;;;;;;;3.10;1.80;;;;;;;23.42;57.07;100604.64;1756328;80;21211;-61
2021/05/08 08:22:45;;;;;;;3.95;1.55;;;;;;;23.43;57.03;100613.22;1746536;80;21216;-62
2021/05/08 08:25:11;;;;;;;3.65;1.85;;;;;;;23.43;56.99;100610.44;1753903;80;21213;-62
2021/05/08 08:27:38;;;;;;;2.92;1.70;;;;;;;23.42;56.94;100614.94;1749071;80;21212;-62
2021/05/08 08:30:09;;;;;;;2.42;1.45;;;;;;;23.40;56.89;100621.39;1745221;80;21283;-62
2021/05/08 08:32:36;;;;;;;2.35;1.35;;;;;;;23.38;56.85;100619.55;1746773;80;21152;-62
2021/05/08 08:35:04;;;;;;;2.90;1.52;;;;;;;23.34;56.84;100626.33;1740763;81;21116;-62
2021/05/08 08:37:30;;;;;;;2.52;1.60;;;;;;;23.32;56.82;100632.81;1736076;81;21166;-61
2021/05/08 08:39:57;;;;;;;3.72;1.75;;;;;;;23.30;56.83;100630.94;1735982;81;21584;-62
2021/05/08 08:42:24;;;;;;;5.75;1.70;;;;;;;23.27;56.85;100630.23;1737314;81;21252;-62
2021/05/08 08:44:50;;;;;;;2.22;1.60;;;;;;;23.26;56.87;100634.73;1737027;81;21133;-62
2021/05/08 08:47:30;;;;;;;2.20;1.42;;;;;;;23.25;56.88;100628.97;1737128;81;21152;-62
2021/05/08 08:50:10;;;;;;;2.52;1.70;;;;;;;23.23;56.90;100631.50;1715437;82;22197;-63
2021/05/08 08:52:37;;;;;;;2.83;1.50;;;;;;;23.22;56.89;100629.05;1741433;81;21177;-61
2021/05/08 08:55:07;;;;;;;2.90;1.55;;;;;;;23.20;56.86;100637.73;1736023;81;21598;-62
2021/05/08 08:57:41;;;;;;;4.03;1.67;;;;;;;23.19;56.88;100639.45;1735415;81;21656;-62
2021/05/08 09:00:07;;;;;;;4.65;1.50;;;;;;;23.18;56.87;100641.98;1733126;81;21156;-64
2021/05/08 09:02:33;;;;;;;2.60;1.50;;;;;;;23.16;56.87;100647.89;1738394;81;21234;-62
2021/05/08 09:04:59;;;;;;;2.60;1.30;;;;;;;23.14;56.88;100644.63;1729690;82;21169;-63
2021/05/08 09:07:28;;;;;;;2.00;1.27;;;;;;;23.14;56.90;100652.14;1728496;82;21174;-62
2021/05/08 09:09:55;;;;;;;2.33;1.35;;;;;;;23.13;56.92;100644.39;1719458;82;21245;-62
2021/05/08 09:12:26;;;;;;;2.20;1.45;;;;;;;23.13;56.90;100648.55;1723534;81;21227;-66
2021/05/08 09:14:50;;;;;;;3.25;1.22;;;;;;;23.19;56.91;100651.38;1700734;82;21580;-65
2021/05/08 09:17:18;;;;;;;3.10;1.10;;;;;;;23.24;56.99;100650.36;1683058;83;21186;-66
2021/05/08 09:20:00;;;;;;;2.35;1.30;;;;;;;23.29;57.06;100652.94;1726582;81;21137;-65
2021/05/08 09:22:35;;;;;;;2.62;1.40;;;;;;;23.33;57.16;100653.87;1717340;82;21170;-65
2021/05/08 09:25:14;;;;;;;2.65;1.05;;;;;;;23.35;57.17;100655.72;1726127;82;21229;-66
2021/05/08 09:27:47;;;;;;;3.45;1.20;;;;;;;23.41;57.11;100654.37;1723839;82;21137;-65
2021/05/08 09:30:25;;;;;;;2.20;1.27;;;;;;;23.44;57.04;100659.27;1724645;82;21597;-65
2021/05/08 09:33:02;;;;;;;2.80;1.60;;;;;;;23.44;56.92;100649.55;1729285;81;21150;-65
2021/05/08 09:35:34;;;;;;;2.05;1.10;;;;;;;23.47;56.84;100661.93;1688755;83;21145;-65
2021/05/08 09:38:18;;;;;;;4.12;1.37;;;;;;;23.48;56.78;100664.95;1676270;84;21125;-66
2021/05/08 09:40:48;;;;;;;3.20;1.10;;;;;;;23.46;56.62;100656.98;1731776;81;21256;-66
2021/05/08 09:43:18;;;;;;;4.20;1.30;;;;;;;23.46;56.55;100652.81;1726591;81;21544;-66
2021/05/08 09:45:47;;;;;;;2.62;1.42;;;;;;;23.47;56.54;100662.75;1681267;83;21146;-67
2021/05/08 09:48:31;;;;;;;2.55;1.05;;;;;;;23.47;56.52;100659.97;1685250;83;21193;-67
2021/05/08 09:51:25;;;;;;;1.98;1.07;;;;;;;23.47;56.48;100657.19;1728650;81;21252;-66
2021/05/08 09:53:54;;;;;;;4.45;1.60;;;;;;;23.46;56.45;100662.53;1725288;81;22291;-65
2021/05/08 09:56:39;;;;;;;2.12;1.20;;;;;;;23.45;56.42;100658.70;1711007;82;21683;-67
2021/05/08 09:59:29;;;;;;;1.90;1.10;;;;;;;23.43;56.38;100656.25;1722407;81;21919;-66
2021/05/08 10:02:10;;;;;;;2.90;0.97;;;;;;;23.42;56.32;100660.17;1728021;81;21220;-65
2021/05/08 10:04:53;;;;;;;3.17;1.02;;;;;;;23.43;56.33;100659.56;1721784;80;21231;-65
2021/05/08 10:07:24;;;;;;;2.40;1.20;;;;;;;23.41;56.29;100654.95;1734696;80;21291;-65
2021/05/08 10:09:52;;;;;;;2.55;1.32;;;;;;;23.39;56.25;100658.05;1738136;81;21185;-67
2021/05/08 10:12:21;;;;;;;1.55;1.10;;;;;;;23.38;56.24;100661.19;1731307;81;21221;-67
2021/05/08 10:14:50;;;;;;;1.62;1.07;;;;;;;23.37;56.18;100652.62;1733159;81;21162;-66
2021/05/08 10:17:24;;;;;;;3.70;1.45;;;;;;;23.37;56.13;100654.00;1733352;80;21596;-66
2021/05/08 10:19:54;;;;;;;3.52;1.20;;;;;;;23.38;56.11;100653.64;1742764;80;22113;-67
2021/05/08 10:22:21;;;;;;;2.27;1.33;;;;;;;23.36;56.06;100647.64;1740277;80;21642;-66
2021/05/08 10:24:50;;;;;;;4.12;1.75;;;;;;;23.37;56.01;100650.66;1705800;81;21625;-67
2021/05/08 10:27:17;;;;;;;2.20;1.17;;;;;;;23.37;56.02;100650.66;1733353;81;21233;-67
2021/05/08 10:29:50;;;;;;;2.80;1.37;;;;;;;23.39;55.99;100655.28;1734960;80;21264;-67
2021/05/08 10:32:19;;;;;;;2.42;1.30;;;;;;;23.42;55.95;100657.97;1733938;80;21249;-67
2021/05/08 10:34:59;;;;;;;2.72;0.90;;;;;;;23.43;55.91;100660.41;1730733;80;21205;-66
2021/05/08 10:37:26;;;;;;;2.92;1.32;;;;;;;23.45;55.85;100659.52;1738238;81;21594;-67
2021/05/08 10:40:06;;;;;;;1.62;1.12;;;;;;;23.48;55.84;100658.01;1734685;81;21236;-68
2021/05/08 10:42:47;;;;;;;2.05;1.35;;;;;;;23.48;55.81;100658.01;1736211;81;21627;-67
2021/05/08 10:45:34;;;;;;;2.08;1.00;;;;;;;23.47;55.77;100661.36;1719207;81;21585;-66
2021/05/08 10:48:07;;;;;;;2.17;1.17;;;;;;;23.45;55.78;100662.29;1702844;82;21213;-67
2021/05/08 10:50:47;;;;;;;1.85;1.12;;;;;;;23.44;55.77;100657.06;1696093;83;21256;-66
2021/05/08 10:53:16;;;;;;;2.02;1.30;;;;;;;23.42;55.79;100656.01;1717505;81;21239;-67
2021/05/08 10:55:58;;;;;;;1.85;1.17;;;;;;;23.40;55.78;100649.16;1725715;81;21178;-66
2021/05/08 10:58:31;;;;;;;3.15;1.00;;;;;;;23.37;55.78;100651.23;1695796;83;21212;-65
2021/05/08 11:01:10;;;;;;;3.83;1.62;;;;;;;23.36;55.78;100651.80;1678797;84;21658;-66
2021/05/08 11:03:48;;;;;;;1.70;1.00;;;;;;;23.34;55.77;100661.63;1708324;82;21265;-65
2021/05/08 11:06:16;;;;;;;1.77;1.00;;;;;;;23.33;55.75;100656.66;1721509;82;22208;-67
2021/05/08 11:08:50;;;;;;;2.05;1.17;;;;;;;23.33;55.75;100655.27;1721168;81;21238;-66
2021/05/08 11:11:22;;;;;;;2.15;1.05;;;;;;;23.34;55.76;100654.09;1713093;81;21642;-66
2021/05/08 11:13:54;;;;;;;1.75;1.30;;;;;;;23.37;55.73;100653.43;1723647;81;21265;-67
2021/05/08 11:16:24;;;;;;;1.77;1.27;;;;;;;23.40;55.66;100647.19;1719239;81;21225;-66
2021/05/08 11:18:56;;;;;;;2.35;1.37;;;;;;;23.41;55.63;100647.44;1718589;81;21258;-66
2021/05/08 11:21:36;;;;;;;2.98;1.40;;;;;;;23.43;55.59;100652.09;1720753;81;21170;-66
2021/05/08 11:24:05;;;;;;;2.15;1.20;;;;;;;23.45;55.58;100657.31;1722676;81;21393;-66
2021/05/08 11:26:34;;;;;;;2.35;1.00;;;;;;;23.45;55.56;100658.70;1718944;81;21197;-67
2021/05/08 11:29:25;;;;;;;2.67;1.30;;;;;;;23.46;55.55;100654.78;1718893;81;21234;-66
2021/05/08 11:31:54;;;;;;;1.90;1.10;;;;;;;23.46;55.51;100653.39;1724078;82;21196;-65